createdAt,value
2022-09-28T12:23:06.778Z,28.54
2022-09-28T12:25:33.096Z,27.91
2022-09-28T12:27:59.433Z,27.70
2022-09-28T12:30:25.754Z,27.52
2022-09-28T12:32:52.079Z,27.50
2022-09-28T12:35:18.426Z,27.23
2022-09-28T12:37:44.763Z,27.26
2022-09-28T12:40:11.133Z,27.26
2022-09-28T12:42:38.491Z,27.00
2022-09-28T12:45:04.828Z,26.99
2022-09-28T12:47:31.196Z,27.01
2022-09-28T12:50:37.134Z,27.04
2022-09-28T12:52:23.875Z,27.04
2022-09-28T12:54:50.253Z,26.94
2022-09-28T12:57:16.586Z,26.95
2022-09-28T12:59:42.927Z,26.89
2022-09-28T13:02:09.288Z,26.86
2022-09-28T13:04:35.586Z,26.85
2022-09-28T13:07:01.906Z,26.64
2022-09-28T13:09:28.282Z,26.60
2022-09-28T13:11:54.603Z,26.57
2022-09-28T13:14:20.946Z,26.57
2022-09-28T13:16:47.282Z,26.59
2022-09-28T13:19:13.687Z,26.54
2022-09-28T13:21:39.941Z,26.48
2022-09-28T13:24:27.837Z,26.41
2022-09-28T13:26:32.610Z,26.42
2022-09-28T13:28:58.970Z,26.43
2022-09-28T13:31:26.769Z,26.54
2022-09-28T13:33:51.629Z,26.76
2022-09-28T13:36:17.952Z,26.74
2022-09-28T13:38:44.276Z,26.75
2022-09-28T13:41:10.670Z,26.80
2022-09-28T13:43:37.012Z,26.82
2022-09-28T13:46:03.359Z,26.84
2022-09-28T13:48:29.650Z,26.94
2022-09-28T13:50:55.969Z,26.90
2022-09-28T13:53:22.358Z,26.70
2022-09-28T13:55:48.671Z,26.41
2022-09-28T13:58:15.024Z,26.35
2022-09-28T14:00:41.376Z,26.36
2022-09-28T14:03:07.780Z,26.32
2022-09-28T14:05:34.035Z,26.37
2022-09-28T14:08:00.395Z,26.38
2022-09-28T14:10:26.731Z,26.18
2022-09-28T14:12:53.053Z,26.02
2022-09-28T14:15:19.397Z,26.04
2022-09-28T14:17:45.718Z,25.99
2022-09-28T14:20:12.046Z,25.94
2022-09-28T14:22:38.409Z,26.06
2022-09-28T14:25:04.722Z,26.10
2022-09-28T14:27:31.097Z,26.08
2022-09-28T14:29:57.426Z,26.03
2022-09-28T14:32:23.738Z,25.90
2022-09-28T14:34:50.061Z,25.95
2022-09-28T14:37:16.407Z,26.03
2022-09-28T14:39:42.748Z,26.01
2022-09-28T14:42:09.071Z,26.02
2022-09-28T14:44:35.443Z,25.99
2022-09-28T14:47:01.793Z,26.01
2022-09-28T14:49:28.139Z,26.02
2022-09-28T14:51:54.472Z,26.05
2022-09-28T14:54:20.821Z,26.03
2022-09-28T14:56:47.144Z,26.01
2022-09-28T14:59:13.485Z,26.10
2022-09-28T15:01:39.815Z,26.19
2022-09-28T15:04:06.150Z,26.04
2022-09-28T15:06:32.488Z,25.94
2022-09-28T15:08:58.807Z,25.99
2022-09-28T15:11:25.170Z,26.04
2022-09-28T15:13:51.549Z,26.04
2022-09-28T15:16:17.981Z,25.91
2022-09-28T15:18:44.205Z,25.83
2022-09-28T15:21:10.570Z,25.81
2022-09-28T15:23:36.904Z,25.70
2022-09-28T15:26:03.213Z,25.70
2022-09-28T15:28:29.570Z,25.57
2022-09-28T15:30:55.922Z,25.48
2022-09-28T15:33:22.214Z,25.47
2022-09-28T15:35:48.548Z,25.40
2022-09-28T15:38:14.877Z,25.33
2022-09-28T15:40:41.307Z,25.24
2022-09-28T15:43:07.552Z,25.10
2022-09-28T15:45:33.897Z,25.06
2022-09-28T15:48:00.211Z,25.00
2022-09-28T15:50:26.570Z,24.94
2022-09-28T15:52:52.885Z,24.86
2022-09-28T15:55:19.210Z,24.72
2022-09-28T15:57:45.535Z,24.70
2022-09-28T16:00:11.896Z,24.68
2022-09-28T16:02:38.252Z,24.49
2022-09-28T16:05:04.535Z,24.43
2022-09-28T16:07:30.861Z,24.42
2022-09-28T16:09:57.203Z,24.40
2022-09-28T16:12:23.528Z,24.37
2022-09-28T16:14:49.853Z,24.39
2022-09-28T16:17:16.172Z,24.34
2022-09-28T16:19:42.496Z,24.34
2022-09-28T16:22:08.841Z,24.34
2022-09-28T16:24:35.184Z,24.22
2022-09-28T16:27:01.499Z,24.17
2022-09-28T16:29:27.826Z,24.06
2022-09-28T16:31:54.149Z,23.92
2022-09-28T16:34:20.495Z,23.75
2022-09-28T16:36:46.810Z,23.67
2022-09-28T16:39:13.164Z,23.70
2022-09-28T16:41:39.482Z,23.61
2022-09-28T16:44:05.826Z,23.38
2022-09-28T16:46:32.217Z,23.20
2022-09-28T16:48:58.527Z,23.11
2022-09-28T16:51:24.868Z,23.12
2022-09-28T16:53:51.203Z,23.10
2022-09-28T16:56:17.520Z,23.09
2022-09-28T16:58:43.863Z,22.98
2022-09-28T17:01:10.277Z,22.93
2022-09-28T17:03:36.653Z,22.93
2022-09-28T17:06:02.895Z,22.92
2022-09-28T17:08:29.258Z,22.83
2022-09-28T17:11:13.907Z,22.84
2022-09-28T17:13:21.905Z,22.84
2022-09-28T17:15:48.275Z,22.86
2022-09-28T17:18:14.587Z,22.86
2022-09-28T17:20:40.912Z,22.85
2022-09-28T17:23:07.258Z,22.72
2022-09-28T17:25:33.605Z,22.92
2022-09-28T17:27:59.984Z,22.88
2022-09-28T17:30:26.299Z,22.66
2022-09-28T17:32:52.674Z,22.45
2022-09-28T17:35:26.072Z,22.47
2022-09-28T17:37:45.354Z,22.39
2022-09-28T17:40:11.695Z,22.38
2022-09-28T17:42:38.017Z,22.40
2022-09-28T17:45:04.357Z,22.42
2022-09-28T17:47:34.156Z,22.41
2022-09-28T17:49:57.050Z,22.36
2022-09-28T17:52:23.379Z,22.30
2022-09-28T17:54:49.693Z,22.18
2022-09-28T17:57:16.021Z,22.12
2022-09-28T17:59:42.359Z,22.12
2022-09-28T18:02:08.747Z,22.08
2022-09-28T18:04:51.186Z,22.13
2022-09-28T18:07:01.382Z,22.08
2022-09-28T18:09:27.720Z,21.98
2022-09-28T18:11:54.037Z,21.83
2022-09-28T18:14:20.389Z,21.77
2022-09-28T18:16:46.729Z,21.56
2022-09-28T18:19:13.128Z,21.43
2022-09-28T18:21:39.435Z,21.33
2022-09-28T18:24:05.792Z,21.17
2022-09-28T18:26:32.114Z,21.04
2022-09-28T18:28:58.454Z,20.99
2022-09-28T18:31:24.812Z,20.88
2022-09-28T18:33:51.104Z,20.80
2022-09-28T18:36:17.467Z,20.76
2022-09-28T18:38:43.838Z,20.72
2022-09-28T18:41:10.163Z,20.68
2022-09-28T18:43:36.628Z,20.68
2022-09-28T18:46:02.885Z,20.60
2022-09-28T18:48:29.162Z,20.57
2022-09-28T18:50:55.534Z,20.47
2022-09-28T18:53:21.848Z,20.45
2022-09-28T18:55:48.207Z,20.38
2022-09-28T18:58:14.553Z,20.34
2022-09-28T19:00:40.925Z,20.31
2022-09-28T19:03:07.436Z,20.32
2022-09-28T19:05:33.591Z,20.37
2022-09-28T19:07:59.907Z,20.29
2022-09-28T19:10:26.252Z,20.31
2022-09-28T19:12:52.610Z,20.35
2022-09-28T19:15:18.951Z,20.39
2022-09-28T19:17:45.265Z,20.37
2022-09-28T19:20:11.621Z,20.43
2022-09-28T19:22:37.956Z,20.12
2022-09-28T19:25:04.294Z,19.97
2022-09-28T19:27:30.642Z,20.10
2022-09-28T19:29:56.963Z,20.15
2022-09-28T19:32:23.303Z,20.15
2022-09-28T19:34:49.623Z,20.19
2022-09-28T19:37:15.970Z,20.13
2022-09-28T19:39:42.310Z,20.11
2022-09-28T19:42:11.104Z,20.10
2022-09-28T19:44:37.453Z,20.11
2022-09-28T19:47:03.803Z,20.19
2022-09-28T19:49:30.125Z,20.44
2022-09-28T19:52:13.932Z,20.54
2022-09-28T19:54:22.823Z,20.63
2022-09-28T19:56:58.971Z,20.53
2022-09-28T19:59:25.331Z,20.42
2022-09-28T20:01:51.707Z,20.44
2022-09-28T20:04:17.998Z,20.47
2022-09-28T20:06:44.314Z,20.46
2022-09-28T20:09:10.641Z,20.42
2022-09-28T20:11:36.982Z,20.43
2022-09-28T20:14:03.376Z,20.45
2022-09-28T20:16:29.689Z,20.43
2022-09-28T20:18:56.033Z,20.15
2022-09-28T20:21:25.698Z,20.08
2022-09-28T20:23:48.710Z,20.19
2022-09-28T20:26:15.041Z,20.21
2022-09-28T20:28:41.367Z,20.10
2022-09-28T20:31:07.729Z,19.94
2022-09-28T20:33:34.027Z,19.80
2022-09-28T20:36:00.343Z,19.83
2022-09-28T20:38:26.666Z,19.79
2022-09-28T20:40:53.108Z,19.75
2022-09-28T20:43:19.320Z,19.60
2022-09-28T20:45:45.659Z,19.56
2022-09-28T20:48:12.033Z,19.59
2022-09-28T20:50:38.371Z,19.61
2022-09-28T20:53:04.689Z,19.59
2022-09-28T20:55:31.011Z,19.63
2022-09-28T20:57:57.358Z,19.62
2022-09-28T21:00:23.707Z,19.64
2022-09-28T21:02:50.072Z,19.49
2022-09-28T21:05:16.436Z,19.41
2022-09-28T21:07:42.753Z,19.36
2022-09-28T21:10:09.072Z,19.26
2022-09-28T21:12:35.434Z,19.19
2022-09-28T21:15:05.781Z,18.99
2022-09-28T21:17:28.089Z,18.94
2022-09-28T21:19:54.459Z,19.00
2022-09-28T21:22:20.799Z,18.92
2022-09-28T21:24:47.135Z,18.92
2022-09-28T21:27:13.476Z,18.88
2022-09-28T21:29:39.809Z,18.99
2022-09-28T21:32:06.130Z,19.01
2022-09-28T21:34:32.461Z,18.98
2022-09-28T21:36:58.788Z,18.92
2022-09-28T21:39:25.152Z,18.94
2022-09-28T21:41:51.494Z,18.95
2022-09-28T21:44:17.895Z,18.91
2022-09-28T21:46:44.201Z,18.78
2022-09-28T21:49:10.504Z,18.58
2022-09-28T21:51:36.843Z,18.50
2022-09-28T21:54:03.182Z,18.54
2022-09-28T21:56:29.525Z,18.52
2022-09-28T21:58:55.882Z,18.50
2022-09-28T22:01:22.308Z,18.27
2022-09-28T22:03:48.570Z,18.25
2022-09-28T22:06:14.906Z,18.33
2022-09-28T22:08:41.222Z,18.37
2022-09-28T22:11:07.549Z,18.32
2022-09-28T22:13:33.884Z,18.29
2022-09-28T22:16:00.225Z,18.28
2022-09-28T22:18:26.527Z,18.26
2022-09-28T22:20:52.869Z,18.23
2022-09-28T22:23:19.203Z,18.27
2022-09-28T22:25:45.554Z,18.30
2022-09-28T22:28:11.860Z,18.33
2022-09-28T22:30:38.246Z,18.46
2022-09-28T22:33:04.584Z,18.58
2022-09-28T22:35:30.900Z,18.60
2022-09-28T22:37:57.251Z,18.63
2022-09-28T22:40:23.582Z,18.57
2022-09-28T22:42:49.887Z,18.68
2022-09-28T22:45:16.239Z,18.77
2022-09-28T22:47:42.575Z,18.77
2022-09-28T22:50:08.916Z,18.68
2022-09-28T22:52:35.265Z,18.65
2022-09-28T22:55:01.610Z,18.66
2022-09-28T22:57:27.925Z,18.68
2022-09-28T22:59:54.269Z,18.79
2022-09-28T23:02:20.646Z,18.76
2022-09-28T23:04:47.007Z,18.71
2022-09-28T23:07:13.349Z,18.67
2022-09-28T23:09:39.677Z,18.70
2022-09-28T23:12:06.042Z,18.76
2022-09-28T23:14:32.400Z,18.80
2022-09-28T23:16:58.715Z,18.77
2022-09-28T23:19:25.107Z,18.83
2022-09-28T23:21:51.448Z,18.84
2022-09-28T23:24:17.786Z,18.86
2022-09-28T23:26:44.125Z,18.91
2022-09-28T23:29:10.502Z,18.90
2022-09-28T23:31:36.884Z,18.89
2022-09-28T23:34:03.167Z,18.96
2022-09-28T23:36:29.508Z,18.95
2022-09-28T23:38:55.865Z,18.94
2022-09-28T23:41:22.178Z,18.97
2022-09-28T23:43:48.523Z,18.92
2022-09-28T23:46:20.269Z,18.91
2022-09-28T23:48:41.187Z,18.90
2022-09-28T23:51:07.527Z,18.80
2022-09-28T23:53:33.867Z,18.72
2022-09-28T23:56:00.183Z,18.74
2022-09-28T23:58:26.506Z,18.85
